createdAt,value
2022-09-30T00:01:26.986Z,90.00
2022-09-30T00:03:55.749Z,90.10
2022-09-30T00:06:24.808Z,90.20
2022-09-30T00:08:53.475Z,90.20
2022-09-30T00:11:25.284Z,90.20
2022-09-30T00:13:53.374Z,90.20
2022-09-30T00:16:22.406Z,90.30
2022-09-30T00:18:50.808Z,90.30
2022-09-30T00:21:18.072Z,90.20
2022-09-30T00:23:46.428Z,90.20
2022-09-30T00:26:16.692Z,90.30
2022-09-30T00:28:44.944Z,90.30
2022-09-30T00:31:15.747Z,90.40
2022-09-30T00:33:44.308Z,90.40
2022-09-30T00:36:11.669Z,90.40
2022-09-30T00:38:38.893Z,90.40
2022-09-30T00:41:06.254Z,90.50
2022-09-30T00:43:51.533Z,90.60
2022-09-30T00:46:34.001Z,90.60
2022-09-30T00:49:20.750Z,90.60
2022-09-30T00:51:56.540Z,90.70
2022-09-30T00:54:31.845Z,90.80
2022-09-30T00:57:04.379Z,90.80
2022-09-30T00:59:38.521Z,90.90
2022-09-30T01:02:06.553Z,91.00
2022-09-30T01:04:36.171Z,91.00
2022-09-30T01:07:06.440Z,91.10
2022-09-30T01:09:39.719Z,91.30
2022-09-30T01:12:11.772Z,91.20
2022-09-30T01:14:40.597Z,91.30
2022-09-30T01:17:20.642Z,91.10
2022-09-30T01:20:22.460Z,91.20
2022-09-30T01:23:32.292Z,91.20
2022-09-30T01:26:17.523Z,91.20
2022-09-30T01:28:59.938Z,91.10
2022-09-30T01:31:45.714Z,91.20
2022-09-30T01:34:25.152Z,91.20
2022-09-30T01:36:59.358Z,91.30
2022-09-30T01:39:51.753Z,91.20
2022-09-30T01:42:31.568Z,91.30
2022-09-30T01:45:37.669Z,91.40
2022-09-30T01:48:08.103Z,91.50
2022-09-30T01:50:56.596Z,91.70
2022-09-30T01:53:27.532Z,92.00
2022-09-30T01:56:13.235Z,92.10
2022-09-30T01:58:47.630Z,92.20
2022-09-30T02:01:23.587Z,92.40
2022-09-30T02:04:01.849Z,92.50
2022-09-30T02:06:38.075Z,92.60
2022-09-30T02:09:24.025Z,92.70
2022-09-30T02:11:54.127Z,92.80
2022-09-30T02:14:31.751Z,92.80
2022-09-30T02:17:11.108Z,93.00
2022-09-30T02:19:43.647Z,93.20
2022-09-30T02:22:40.685Z,93.40
2022-09-30T02:25:10.392Z,93.40
2022-09-30T02:27:42.557Z,93.50
2022-09-30T02:30:12.822Z,93.50
2022-09-30T02:32:54.894Z,93.50
2022-09-30T02:35:40.360Z,93.50
2022-09-30T02:38:23.579Z,93.60
2022-09-30T02:40:56.781Z,93.60
2022-09-30T02:43:26.338Z,93.60
2022-09-30T02:46:05.538Z,93.70
2022-09-30T02:48:49.480Z,93.80
2022-09-30T02:51:38.761Z,94.00
2022-09-30T02:54:43.040Z,94.20
2022-09-30T02:57:49.307Z,94.40
2022-09-30T03:00:17.020Z,94.50
2022-09-30T03:02:44.533Z,94.50
2022-09-30T03:05:12.040Z,94.70
2022-09-30T03:07:40.895Z,94.80
2022-09-30T03:10:16.651Z,94.90
2022-09-30T03:13:00.922Z,95.10
2022-09-30T03:15:42.913Z,95.10
2022-09-30T03:18:24.539Z,95.30
2022-09-30T03:21:08.874Z,95.30
2022-09-30T03:24:09.826Z,95.60
2022-09-30T03:26:40.928Z,95.80
2022-09-30T03:29:23.261Z,95.90
2022-09-30T03:32:03.100Z,96.00
2022-09-30T03:34:51.552Z,96.10
2022-09-30T03:37:30.311Z,96.30
2022-09-30T03:40:04.364Z,96.60
2022-09-30T03:42:41.046Z,96.40
2022-09-30T03:45:25.491Z,96.50
2022-09-30T03:47:57.257Z,96.70
2022-09-30T03:50:27.653Z,96.90
2022-09-30T03:52:55.592Z,97.10
2022-09-30T03:55:24.311Z,97.30
2022-09-30T03:57:54.335Z,97.50
2022-09-30T04:00:21.622Z,97.60
2022-09-30T04:02:48.846Z,97.60
2022-09-30T04:05:16.165Z,97.80
2022-09-30T04:07:43.478Z,98.00
2022-09-30T04:10:11.850Z,98.00
2022-09-30T04:12:39.062Z,98.10
2022-09-30T04:15:06.704Z,98.30
2022-09-30T04:17:33.915Z,98.30
2022-09-30T04:20:01.275Z,98.50
2022-09-30T04:22:28.499Z,98.70
2022-09-30T04:24:55.843Z,98.80
2022-09-30T04:27:23.353Z,98.90
2022-09-30T04:29:50.568Z,99.10
2022-09-30T04:32:17.783Z,99.10
2022-09-30T04:34:45.201Z,99.20
2022-09-30T04:37:12.895Z,99.40
2022-09-30T04:39:40.809Z,99.50
2022-09-30T04:42:08.189Z,99.70
2022-09-30T04:44:35.707Z,99.70
2022-09-30T04:47:03.301Z,99.90
2022-09-30T04:49:30.525Z,99.90
2022-09-30T04:51:58.122Z,99.90
2022-09-30T04:54:25.503Z,99.90
2022-09-30T04:56:53.003Z,99.90
2022-09-30T04:59:20.368Z,99.90
2022-09-30T05:01:47.997Z,99.90
2022-09-30T05:04:16.742Z,99.90
2022-09-30T05:06:44.108Z,99.90
2022-09-30T05:09:11.367Z,99.90
2022-09-30T05:11:40.859Z,99.90
2022-09-30T05:14:11.304Z,99.90
2022-09-30T05:16:38.756Z,99.90
2022-09-30T05:19:06.392Z,99.90
2022-09-30T05:21:34.203Z,99.90
2022-09-30T05:24:02.255Z,99.90
2022-09-30T05:26:30.224Z,99.90
2022-09-30T05:28:58.263Z,99.90
2022-09-30T05:31:27.115Z,99.90
2022-09-30T05:33:58.085Z,99.90
2022-09-30T05:36:25.878Z,99.90
2022-09-30T05:38:54.141Z,99.90
2022-09-30T05:41:22.164Z,99.90
2022-09-30T05:43:50.299Z,99.90
2022-09-30T05:46:19.981Z,99.90
2022-09-30T05:48:47.384Z,99.90
2022-09-30T05:51:14.927Z,99.90
2022-09-30T05:53:42.329Z,99.90
2022-09-30T05:56:11.016Z,99.90
2022-09-30T05:58:40.419Z,99.90
2022-09-30T06:01:14.242Z,99.90
2022-09-30T06:03:46.248Z,99.90
2022-09-30T06:06:14.849Z,99.90
2022-09-30T06:08:43.457Z,99.90
2022-09-30T06:11:12.916Z,99.90
2022-09-30T06:13:42.027Z,99.90
2022-09-30T06:16:11.089Z,99.90
2022-09-30T06:18:41.124Z,99.90
2022-09-30T06:21:11.374Z,99.90
2022-09-30T06:23:39.816Z,99.90
2022-09-30T06:26:08.939Z,99.90
2022-09-30T06:28:36.365Z,99.90
2022-09-30T06:31:04.907Z,99.90
2022-09-30T06:33:32.716Z,99.90
2022-09-30T06:36:04.167Z,99.90
2022-09-30T06:38:32.830Z,99.90
2022-09-30T06:41:01.089Z,99.90
2022-09-30T06:43:28.745Z,99.90
2022-09-30T06:46:06.016Z,99.90
2022-09-30T06:48:40.562Z,99.90
2022-09-30T06:51:10.464Z,99.90
2022-09-30T06:53:40.310Z,99.90
2022-09-30T06:56:08.273Z,99.90
2022-09-30T06:58:35.787Z,99.90
2022-09-30T07:01:07.352Z,99.90
2022-09-30T07:03:36.241Z,99.90
2022-09-30T07:06:06.299Z,99.90
2022-09-30T07:08:35.858Z,99.90
2022-09-30T07:11:08.655Z,99.90
2022-09-30T07:13:36.219Z,99.90
2022-09-30T07:16:03.519Z,99.90
2022-09-30T07:18:30.922Z,99.90
2022-09-30T07:20:58.415Z,99.90
2022-09-30T07:23:28.572Z,99.90
2022-09-30T07:25:56.892Z,99.90
2022-09-30T07:28:31.266Z,99.90
2022-09-30T07:31:19.968Z,99.70
2022-09-30T07:33:47.774Z,99.70
2022-09-30T07:36:18.750Z,99.60
2022-09-30T07:38:50.625Z,99.40
2022-09-30T07:41:24.576Z,99.40
2022-09-30T07:43:51.791Z,99.40
2022-09-30T07:46:25.680Z,98.90
2022-09-30T07:48:56.788Z,98.90
2022-09-30T07:51:31.587Z,98.60
2022-09-30T07:54:08.794Z,98.80
2022-09-30T07:57:08.060Z,98.60
2022-09-30T07:59:27.542Z,98.40
2022-09-30T08:01:55.618Z,98.50
2022-09-30T08:04:24.662Z,98.30
2022-09-30T08:07:00.462Z,98.70
2022-09-30T08:09:29.244Z,98.20
2022-09-30T08:11:57.126Z,98.10
2022-09-30T08:14:27.703Z,98.20
2022-09-30T08:16:57.106Z,97.20
2022-09-30T08:19:25.727Z,97.00
2022-09-30T08:21:54.137Z,96.60
2022-09-30T08:24:23.097Z,96.90
2022-09-30T08:26:51.172Z,96.60
2022-09-30T08:29:20.348Z,96.70
2022-09-30T08:31:48.373Z,96.70
2022-09-30T08:34:15.841Z,95.70
2022-09-30T08:36:43.229Z,95.60
2022-09-30T08:39:11.059Z,95.40
2022-09-30T08:42:19.133Z,95.60
2022-09-30T08:45:10.614Z,95.40
2022-09-30T08:51:15.503Z,94.60
2022-09-30T08:53:46.083Z,94.50
2022-09-30T08:56:24.720Z,94.80
2022-09-30T08:58:57.149Z,94.60
2022-09-30T09:01:36.222Z,94.20
2022-09-30T09:04:05.647Z,93.80
2022-09-30T09:06:52.691Z,94.20
2022-09-30T09:09:32.912Z,94.60
2022-09-30T09:12:27.627Z,94.60
2022-09-30T09:14:54.972Z,94.00
2022-09-30T09:18:04.247Z,93.30
2022-09-30T09:20:38.216Z,92.30
2022-09-30T09:23:11.640Z,92.30
2022-09-30T09:25:39.583Z,93.00
2022-09-30T09:28:26.262Z,93.40
2022-09-30T09:30:58.757Z,92.70
2022-09-30T09:33:32.037Z,92.40
2022-09-30T09:36:05.819Z,91.20
2022-09-30T09:39:01.147Z,90.60
2022-09-30T09:41:55.615Z,90.40
2022-09-30T09:44:48.266Z,90.80
2022-09-30T09:47:17.121Z,91.10
2022-09-30T09:50:04.359Z,90.70
2022-09-30T09:52:51.295Z,90.20
2022-09-30T09:55:22.619Z,90.40
2022-09-30T09:58:17.471Z,90.50
2022-09-30T10:00:47.643Z,88.60
2022-09-30T10:03:19.741Z,88.70
2022-09-30T10:06:03.621Z,87.90
2022-09-30T10:08:36.345Z,86.80
2022-09-30T10:11:06.763Z,86.10
2022-09-30T10:13:45.486Z,86.50
2022-09-30T10:16:35.703Z,86.20
2022-09-30T10:19:09.467Z,86.30
2022-09-30T10:21:37.292Z,86.70
2022-09-30T10:24:30.144Z,85.70
2022-09-30T10:26:57.503Z,84.50
2022-09-30T10:29:31.707Z,84.50
2022-09-30T10:32:09.586Z,84.00
2022-09-30T10:34:40.206Z,84.50
2022-09-30T10:37:17.148Z,84.20
2022-09-30T10:39:56.323Z,84.20
2022-09-30T10:42:27.259Z,83.80
2022-09-30T10:45:04.195Z,84.30
2022-09-30T10:47:36.593Z,83.70
2022-09-30T10:50:11.616Z,84.10
2022-09-30T10:52:47.430Z,82.00
2022-09-30T10:55:20.707Z,81.80
2022-09-30T10:57:50.444Z,82.40
2022-09-30T11:00:19.712Z,82.60
2022-09-30T11:02:53.928Z,82.10
2022-09-30T11:05:29.844Z,83.30
2022-09-30T11:08:18.871Z,84.10
2022-09-30T11:11:09.957Z,84.10
2022-09-30T11:13:42.951Z,84.20
2022-09-30T11:16:48.614Z,84.00
2022-09-30T11:19:33.041Z,83.50
2022-09-30T11:22:04.573Z,83.60
2022-09-30T11:24:41.559Z,82.70
2022-09-30T11:27:38.556Z,82.50
2022-09-30T11:30:32.438Z,81.60
2022-09-30T11:33:22.536Z,81.60
2022-09-30T11:35:55.419Z,82.30
2022-09-30T11:38:32.033Z,80.80
2022-09-30T11:41:15.328Z,80.50
2022-09-30T11:43:58.587Z,79.90
2022-09-30T11:46:44.287Z,79.50
2022-09-30T11:49:30.036Z,79.80
2022-09-30T11:52:22.206Z,79.60
2022-09-30T11:54:52.477Z,80.00
2022-09-30T11:57:32.671Z,81.20
2022-09-30T12:00:12.206Z,80.70
2022-09-30T12:02:45.231Z,79.80
2022-09-30T12:05:19.341Z,78.70
2022-09-30T12:07:52.356Z,79.50
2022-09-30T12:10:37.462Z,78.60
2022-09-30T12:13:12.805Z,79.70
2022-09-30T12:15:44.515Z,79.40
2022-09-30T12:18:22.566Z,80.20
2022-09-30T12:20:52.917Z,80.30
2022-09-30T12:23:30.837Z,80.20
2022-09-30T12:25:59.956Z,80.30
2022-09-30T12:28:58.900Z,80.00
2022-09-30T12:31:55.179Z,80.70
2022-09-30T12:35:09.998Z,79.80
2022-09-30T12:37:52.358Z,79.80
2022-09-30T12:40:29.635Z,81.00
2022-09-30T12:43:22.228Z,81.10
2022-09-30T12:45:59.209Z,79.40
2022-09-30T12:48:39.053Z,80.20
2022-09-30T12:51:07.217Z,79.30
2022-09-30T12:53:40.563Z,77.70
2022-09-30T12:56:10.395Z,77.50
2022-09-30T12:58:46.332Z,78.20
2022-09-30T13:01:19.593Z,77.90
2022-09-30T13:03:53.029Z,77.60
2022-09-30T13:06:22.273Z,77.50
2022-09-30T13:09:16.572Z,77.50
2022-09-30T13:11:48.293Z,78.80
2022-09-30T13:14:34.965Z,78.60
2022-09-30T13:17:08.292Z,80.00
2022-09-30T13:19:55.908Z,80.00
2022-09-30T13:22:32.085Z,80.30
2022-09-30T13:24:59.272Z,80.90
2022-09-30T13:28:09.278Z,81.20
2022-09-30T13:30:40.306Z,81.70
2022-09-30T13:33:40.613Z,80.90
2022-09-30T13:36:17.981Z,80.40
2022-09-30T13:38:45.432Z,80.00
2022-09-30T13:41:25.050Z,80.50
2022-09-30T13:44:12.412Z,79.80
2022-09-30T13:46:43.931Z,79.90
2022-09-30T13:49:21.239Z,80.40
2022-09-30T13:51:48.990Z,79.70
2022-09-30T13:54:46.017Z,79.10
2022-09-30T13:57:20.578Z,78.90
2022-09-30T13:59:47.743Z,79.20
2022-09-30T14:02:27.520Z,78.10
2022-09-30T14:05:16.517Z,78.50
2022-09-30T14:08:26.594Z,78.10
2022-09-30T14:11:05.850Z,77.90
2022-09-30T14:13:43.171Z,77.30
2022-09-30T14:16:33.691Z,76.60
2022-09-30T14:19:19.351Z,76.40
2022-09-30T14:21:50.770Z,75.40
2022-09-30T14:24:26.783Z,75.60
2022-09-30T14:27:31.675Z,74.50
2022-09-30T14:30:09.628Z,74.20
2022-09-30T14:32:50.688Z,75.10
2022-09-30T14:35:31.365Z,75.20
2022-09-30T14:38:09.152Z,75.00
2022-09-30T14:40:40.216Z,75.00
2022-09-30T14:43:14.681Z,74.90
2022-09-30T14:45:45.460Z,74.90
2022-09-30T14:48:34.845Z,74.60
2022-09-30T14:51:12.832Z,75.30
2022-09-30T14:53:43.392Z,75.10
2022-09-30T14:56:23.174Z,75.30
2022-09-30T14:58:53.590Z,74.70
2022-09-30T15:01:23.283Z,75.00
2022-09-30T15:04:02.253Z,75.20
2022-09-30T15:06:33.284Z,74.80
2022-09-30T15:09:22.007Z,75.50
2022-09-30T15:11:49.389Z,75.40
2022-09-30T15:14:20.833Z,75.70
2022-09-30T15:16:50.239Z,76.00
2022-09-30T15:19:42.393Z,76.40
2022-09-30T15:22:12.424Z,76.50
2022-09-30T15:24:41.362Z,76.90
2022-09-30T15:27:20.012Z,77.10
2022-09-30T15:30:01.417Z,77.50
2022-09-30T15:32:32.862Z,77.70
2022-09-30T15:35:27.382Z,77.80
2022-09-30T15:38:05.370Z,78.20
2022-09-30T15:40:49.377Z,78.40
2022-09-30T15:43:36.469Z,78.90
2022-09-30T15:46:33.743Z,79.10
2022-09-30T15:49:03.548Z,79.20
2022-09-30T15:51:39.735Z,79.10
2022-09-30T15:54:16.022Z,79.40
2022-09-30T15:56:43.678Z,79.80
2022-09-30T15:59:13.424Z,79.90
2022-09-30T16:01:48.382Z,80.20
2022-09-30T16:04:15.636Z,80.50
2022-09-30T16:06:51.818Z,80.70
2022-09-30T16:09:24.601Z,80.90
2022-09-30T16:12:08.697Z,81.10
2022-09-30T16:14:45.061Z,81.20
2022-09-30T16:17:33.517Z,81.20
2022-09-30T16:20:20.938Z,81.40
2022-09-30T16:22:51.940Z,81.40
2022-09-30T16:25:28.233Z,81.50
2022-09-30T16:27:59.651Z,82.30
2022-09-30T16:30:28.826Z,81.60
2022-09-30T16:32:59.677Z,81.70
2022-09-30T16:35:28.665Z,82.10
2022-09-30T16:38:01.899Z,82.20
2022-09-30T16:40:30.424Z,82.50
2022-09-30T16:43:04.306Z,82.70
2022-09-30T16:45:35.194Z,82.80
2022-09-30T16:48:05.814Z,83.00
2022-09-30T16:50:41.682Z,83.70
2022-09-30T16:53:12.041Z,83.10
2022-09-30T16:55:40.174Z,83.40
2022-09-30T16:58:13.383Z,83.80
2022-09-30T17:00:47.443Z,84.20
2022-09-30T17:03:18.405Z,84.60
2022-09-30T17:05:49.200Z,85.60
2022-09-30T17:08:17.053Z,85.30
2022-09-30T17:10:50.207Z,85.50
2022-09-30T17:13:21.533Z,85.80
2022-09-30T17:15:51.222Z,86.00
2022-09-30T17:18:19.632Z,86.30
2022-09-30T17:20:53.154Z,86.40
2022-09-30T17:23:22.073Z,86.60
2022-09-30T17:25:49.768Z,86.90
2022-09-30T17:28:17.396Z,87.70
2022-09-30T17:30:47.770Z,87.10
2022-09-30T17:33:16.262Z,87.20
2022-09-30T17:35:43.661Z,87.30
2022-09-30T17:38:12.946Z,87.50
2022-09-30T17:40:59.087Z,88.20
2022-09-30T17:43:26.403Z,87.80
2022-09-30T17:45:55.630Z,88.10
2022-09-30T17:48:23.559Z,88.30
2022-09-30T17:50:54.750Z,88.60
2022-09-30T17:53:22.987Z,88.80
2022-09-30T17:56:09.215Z,89.00
2022-09-30T17:58:36.896Z,89.20
2022-09-30T18:01:08.518Z,89.20
2022-09-30T18:03:38.951Z,89.20
2022-09-30T18:06:06.463Z,89.30
2022-09-30T18:08:34.809Z,89.40
2022-09-30T18:11:02.156Z,89.60
2022-09-30T18:13:29.935Z,89.80
2022-09-30T18:16:02.122Z,90.00
2022-09-30T18:18:29.953Z,90.00
2022-09-30T18:20:57.177Z,90.10
2022-09-30T18:23:24.824Z,90.30
2022-09-30T18:25:55.057Z,90.40
2022-09-30T18:28:22.459Z,90.50
2022-09-30T18:30:50.205Z,90.60
2022-09-30T18:33:21.634Z,90.60
2022-09-30T18:35:49.383Z,90.90
2022-09-30T18:38:16.697Z,90.80
2022-09-30T18:40:45.682Z,90.90
2022-09-30T18:43:14.475Z,91.00
2022-09-30T18:45:43.700Z,91.10
2022-09-30T18:48:11.346Z,91.10
2022-09-30T18:50:38.989Z,91.20
2022-09-30T18:53:10.100Z,91.30
2022-09-30T18:55:38.386Z,91.40
2022-09-30T18:58:06.263Z,91.50
2022-09-30T19:00:33.635Z,91.60
2022-09-30T19:03:01.087Z,91.80
2022-09-30T19:05:28.597Z,92.00
2022-09-30T19:07:56.216Z,92.10
2022-09-30T19:10:25.584Z,92.30
2022-09-30T19:12:53.395Z,92.50
2022-09-30T19:15:20.823Z,92.60
2022-09-30T19:17:50.807Z,92.80
2022-09-30T19:20:18.063Z,93.00
2022-09-30T19:22:45.632Z,93.10
2022-09-30T19:25:14.092Z,93.20
2022-09-30T19:27:42.488Z,93.40
2022-09-30T19:30:12.268Z,93.70
2022-09-30T19:32:40.031Z,93.70
2022-09-30T19:35:14.019Z,93.80
2022-09-30T19:37:55.048Z,93.90
2022-09-30T19:40:27.401Z,93.90
2022-09-30T19:42:54.688Z,94.00
2022-09-30T19:45:25.750Z,94.10
2022-09-30T19:47:54.123Z,94.20
2022-09-30T19:50:21.659Z,94.30
2022-09-30T19:52:57.036Z,94.40
2022-09-30T19:55:25.916Z,94.60
2022-09-30T19:57:53.795Z,94.70
2022-09-30T20:00:21.409Z,94.80
2022-09-30T20:02:48.687Z,94.90
2022-09-30T20:05:16.095Z,95.00
2022-09-30T20:07:43.308Z,95.10
2022-09-30T20:10:10.648Z,95.10
2022-09-30T20:12:38.112Z,95.20
2022-09-30T20:15:24.365Z,95.30
2022-09-30T20:17:54.981Z,95.40
2022-09-30T20:20:34.812Z,95.50
2022-09-30T20:23:02.380Z,95.60
2022-09-30T20:25:31.239Z,95.60
2022-09-30T20:27:58.674Z,95.60
2022-09-30T20:30:29.936Z,95.60
2022-09-30T20:32:57.725Z,95.70
2022-09-30T20:35:25.783Z,95.90
2022-09-30T20:37:54.237Z,96.00
2022-09-30T20:40:22.071Z,96.10
2022-09-30T20:42:49.432Z,96.10
2022-09-30T20:45:18.194Z,96.20
2022-09-30T20:47:47.196Z,96.30
2022-09-30T20:50:34.678Z,96.30
2022-09-30T20:53:09.770Z,96.40
2022-09-30T20:55:39.296Z,96.60
2022-09-30T20:58:08.264Z,96.70
2022-09-30T21:00:38.034Z,96.70
2022-09-30T21:03:07.618Z,96.80
2022-09-30T21:05:34.879Z,97.00
2022-09-30T21:08:02.356Z,97.10
2022-09-30T21:10:30.639Z,97.20
2022-09-30T21:13:01.187Z,97.30
2022-09-30T21:15:31.027Z,97.50
2022-09-30T21:17:58.678Z,97.60
2022-09-30T21:20:26.434Z,97.70
2022-09-30T21:22:54.024Z,97.70
2022-09-30T21:25:21.634Z,97.80
2022-09-30T21:27:49.499Z,98.00
2022-09-30T21:30:17.978Z,98.10
2022-09-30T21:32:46.341Z,98.10
2022-09-30T21:35:14.352Z,98.10
2022-09-30T21:37:42.534Z,98.20
2022-09-30T21:40:11.160Z,98.30
2022-09-30T21:42:38.781Z,98.50
2022-09-30T21:45:08.400Z,98.50
2022-09-30T21:47:35.873Z,98.50
2022-09-30T21:50:03.440Z,98.50
2022-09-30T21:52:32.843Z,98.70
2022-09-30T21:55:00.338Z,98.90
2022-09-30T21:57:29.116Z,98.90
2022-09-30T21:59:56.344Z,98.90
2022-09-30T22:02:23.787Z,99.00
2022-09-30T22:04:51.176Z,99.00
2022-09-30T22:07:18.619Z,99.10
2022-09-30T22:09:45.876Z,99.10
2022-09-30T22:12:13.565Z,99.20
2022-09-30T22:14:41.293Z,99.60
2022-09-30T22:17:10.047Z,99.30
2022-09-30T22:19:38.121Z,99.40
2022-09-30T22:22:05.393Z,99.40
2022-09-30T22:24:32.742Z,99.50
2022-09-30T22:27:00.212Z,99.50
2022-09-30T22:29:27.616Z,99.60
2022-09-30T22:31:54.903Z,99.60
2022-09-30T22:34:40.752Z,99.70
2022-09-30T22:37:28.059Z,99.70
2022-09-30T22:39:59.951Z,99.70
2022-09-30T22:42:29.347Z,99.60
2022-09-30T22:44:56.666Z,99.70
2022-09-30T22:47:24.048Z,99.80
2022-09-30T22:49:51.414Z,99.80
2022-09-30T22:52:18.632Z,99.90
2022-09-30T22:54:46.158Z,99.80
2022-09-30T22:57:13.664Z,99.90
2022-09-30T22:59:41.804Z,99.90
2022-09-30T23:02:09.164Z,99.90
2022-09-30T23:04:36.422Z,99.90
2022-09-30T23:07:05.450Z,99.90
2022-09-30T23:09:32.836Z,99.90
2022-09-30T23:12:00.490Z,99.90
2022-09-30T23:14:28.019Z,99.90
2022-09-30T23:16:55.423Z,99.90
2022-09-30T23:19:22.795Z,99.90
2022-09-30T23:21:50.208Z,99.90
2022-09-30T23:24:17.707Z,99.90
2022-09-30T23:26:45.142Z,99.90
2022-09-30T23:29:13.784Z,99.90
2022-09-30T23:31:41.416Z,99.90
2022-09-30T23:34:09.233Z,99.90
2022-09-30T23:36:37.478Z,99.90
2022-09-30T23:39:12.361Z,99.90
2022-09-30T23:41:39.658Z,99.90
2022-09-30T23:44:08.264Z,99.90
2022-09-30T23:46:35.674Z,99.90
2022-09-30T23:49:03.104Z,99.90
2022-09-30T23:51:34.591Z,99.90
2022-09-30T23:54:02.240Z,99.90
2022-09-30T23:56:29.490Z,99.90
2022-09-30T23:58:57.378Z,99.90
